Wilton, Iowa
Current Conditions -  °F | °C
As of 8:15 AM on Saturday 22 Nov 2014 (Local Time) from KMUT Reporting Station
Haze Haze  
Wind Chill: 39°   Ceiling: 900
Heat Index: 43°   Visibility: 4mi
Dew Point: 41°   Wind: 7mph
Humidity: 93%   Direction: 180°S
Pressure: 29.95"   Gusts: NA
Location:  41.59°N, 91.02°W
Report Text: KMUT 221415Z AUTO 18006KT 4SM BR OVC009 06/05 A2995 RMK AO2
Loading
Personal Weather Stations






























Interactive Weather Map New forecast layout! Learn more

10-Day Weather Forecast

Advertisements
Track Severe Weather on mobile